createdAt,value
2018-03-21T00:01:09.962Z,12.47
2018-03-21T00:03:38.559Z,13.50
2018-03-21T00:06:06.127Z,13.87
2018-03-21T00:08:34.580Z,11.00
2018-03-21T00:11:02.165Z,11.90
2018-03-21T00:13:29.858Z,10.67
2018-03-21T00:15:57.406Z,9.63
2018-03-21T00:18:24.977Z,8.00
2018-03-21T00:20:52.843Z,15.27
2018-03-21T00:23:20.413Z,11.73
2018-03-21T00:25:48.006Z,9.13
2018-03-21T00:44:20.622Z,9.50
2018-03-21T00:46:48.152Z,8.47
2018-03-21T00:49:15.787Z,8.93
2018-03-21T00:51:43.367Z,8.27
2018-03-21T00:54:10.893Z,6.30
2018-03-21T00:56:38.536Z,6.60
2018-03-21T00:59:06.093Z,9.30
2018-03-21T01:01:33.878Z,9.20
2018-03-21T01:04:01.453Z,6.70
2018-03-21T01:06:29.037Z,11.33
2018-03-21T01:08:57.868Z,9.90
2018-03-21T01:11:25.626Z,8.53
2018-03-21T01:13:53.204Z,11.80
2018-03-21T01:16:20.752Z,9.47
2018-03-21T01:18:48.339Z,6.93
2018-03-21T01:21:16.002Z,9.30
2018-03-21T01:23:43.561Z,9.03
2018-03-21T01:26:11.206Z,7.40
2018-03-21T01:28:38.752Z,7.80
2018-03-21T01:31:06.249Z,9.87
2018-03-21T01:33:33.824Z,8.17
2018-03-21T01:36:01.325Z,8.40
2018-03-21T01:38:28.882Z,8.40
2018-03-21T01:40:56.398Z,9.43
2018-03-21T01:43:23.931Z,12.27
2018-03-21T01:45:51.491Z,10.60
2018-03-21T01:48:19.055Z,11.50
2018-03-21T01:50:46.584Z,11.03
2018-03-21T01:53:14.089Z,8.47
2018-03-21T01:55:41.629Z,7.43
2018-03-21T01:58:09.166Z,12.53
2018-03-21T02:00:36.750Z,9.17
2018-03-21T02:03:04.283Z,7.17
2018-03-21T02:05:31.980Z,6.20
2018-03-21T02:07:59.544Z,10.47
2018-03-21T02:10:27.046Z,8.33
2018-03-21T02:12:54.642Z,11.47
2018-03-21T02:15:22.216Z,7.97
2018-03-21T02:17:49.749Z,7.97
2018-03-21T02:20:17.249Z,14.33
2018-03-21T02:22:44.794Z,10.60
2018-03-21T02:25:12.352Z,9.03
2018-03-21T02:27:39.972Z,8.90
2018-03-21T02:30:07.515Z,9.23
2018-03-21T02:32:35.033Z,10.80
2018-03-21T02:35:02.571Z,10.70
2018-03-21T02:37:30.098Z,9.20
2018-03-21T02:39:57.667Z,11.93
2018-03-21T02:42:25.237Z,9.43
2018-03-21T02:44:52.763Z,8.23
2018-03-21T02:47:20.285Z,9.27
2018-03-21T02:49:47.813Z,9.20
2018-03-21T02:52:15.340Z,12.20
2018-03-21T02:54:42.868Z,10.63
2018-03-21T02:57:10.357Z,12.90
2018-03-21T02:59:37.887Z,8.47
2018-03-21T03:02:05.419Z,11.07
2018-03-21T03:04:32.962Z,7.60
2018-03-21T03:07:00.520Z,9.10
2018-03-21T03:09:28.187Z,10.67
2018-03-21T03:11:55.691Z,10.03
2018-03-21T03:14:23.219Z,9.10
2018-03-21T03:16:50.743Z,9.47
2018-03-21T03:19:18.256Z,10.83
2018-03-21T03:21:45.764Z,12.73
2018-03-21T03:24:13.282Z,11.80
2018-03-21T03:26:40.788Z,9.03
2018-03-21T03:29:08.304Z,10.63
2018-03-21T03:31:35.801Z,10.23
2018-03-21T03:34:03.345Z,11.43
2018-03-21T03:36:30.841Z,8.80
2018-03-21T03:38:58.362Z,6.50
2018-03-21T03:41:25.887Z,8.87
2018-03-21T03:43:53.386Z,10.13
2018-03-21T03:46:20.904Z,8.13
2018-03-21T03:48:48.432Z,7.93
2018-03-21T03:51:15.950Z,6.13
2018-03-21T03:53:43.461Z,10.03
2018-03-21T03:56:10.967Z,8.27
2018-03-21T03:58:38.505Z,10.03
2018-03-21T04:01:06.018Z,8.70
2018-03-21T04:03:33.563Z,10.83
2018-03-21T04:06:01.095Z,9.83
2018-03-21T04:08:28.628Z,10.73
2018-03-21T04:10:56.131Z,8.97
2018-03-21T04:13:23.767Z,6.87
2018-03-21T04:15:51.293Z,6.70
2018-03-21T04:18:18.808Z,10.93
2018-03-21T04:20:46.321Z,8.23
2018-03-21T04:23:13.890Z,8.27
2018-03-21T04:25:41.429Z,8.93
2018-03-21T04:28:08.945Z,7.33
2018-03-21T04:30:36.467Z,7.97
2018-03-21T04:33:04.515Z,11.30
2018-03-21T04:35:32.081Z,13.47
2018-03-21T04:37:59.608Z,11.60
2018-03-21T04:40:27.129Z,8.87
2018-03-21T04:42:54.686Z,13.97
2018-03-21T04:45:22.230Z,8.90
2018-03-21T04:47:49.771Z,9.90
2018-03-21T04:50:17.287Z,16.87
2018-03-21T04:52:44.807Z,10.07
2018-03-21T04:55:12.348Z,11.63
2018-03-21T04:57:39.854Z,9.53
2018-03-21T05:00:07.436Z,8.37
2018-03-21T05:02:34.957Z,9.13
2018-03-21T05:05:02.502Z,10.23
2018-03-21T05:07:30.042Z,10.33
2018-03-21T05:09:57.552Z,9.93
2018-03-21T05:12:25.754Z,10.20
2018-03-21T05:14:54.098Z,8.70
2018-03-21T05:17:21.792Z,8.97
2018-03-21T05:19:49.411Z,9.73
2018-03-21T05:22:16.919Z,9.03
2018-03-21T05:24:44.808Z,11.07
2018-03-21T05:27:12.343Z,10.90
2018-03-21T05:29:39.924Z,7.23
2018-03-21T05:32:07.468Z,11.53
2018-03-21T05:34:35.056Z,6.37
2018-03-21T05:37:02.836Z,11.63
2018-03-21T05:39:30.348Z,10.53
2018-03-21T05:41:57.900Z,11.90
2018-03-21T05:44:25.430Z,8.70
2018-03-21T05:46:52.932Z,13.43
2018-03-21T05:49:20.460Z,7.60
2018-03-21T05:51:47.992Z,7.87
2018-03-21T05:54:16.470Z,10.70
2018-03-21T05:56:43.996Z,8.17
2018-03-21T05:59:11.516Z,11.00
2018-03-21T06:01:39.113Z,11.97
2018-03-21T06:04:06.636Z,7.57
2018-03-21T06:06:34.132Z,13.07
2018-03-21T06:09:01.654Z,13.30
2018-03-21T06:11:29.172Z,10.47
2018-03-21T06:13:56.709Z,11.50
2018-03-21T06:16:24.235Z,14.13
2018-03-21T06:18:51.728Z,11.43
2018-03-21T06:21:19.939Z,11.57
2018-03-21T06:23:47.444Z,8.67
2018-03-21T06:26:14.989Z,15.57
2018-03-21T06:28:42.529Z,8.20
2018-03-21T06:31:10.666Z,10.00
2018-03-21T06:33:38.188Z,8.77
2018-03-21T06:36:05.706Z,11.90
2018-03-21T06:38:33.267Z,10.20
2018-03-21T06:41:00.775Z,8.77
2018-03-21T06:43:28.302Z,11.10
2018-03-21T06:45:55.832Z,11.40
2018-03-21T06:48:23.337Z,11.47
2018-03-21T06:50:50.886Z,8.23
2018-03-21T06:53:18.409Z,10.63
2018-03-21T06:55:45.912Z,8.80
2018-03-21T06:58:13.430Z,12.57
2018-03-21T07:00:40.930Z,6.37
2018-03-21T07:03:08.467Z,7.40
2018-03-21T07:05:35.972Z,9.60
2018-03-21T07:08:03.555Z,9.13
2018-03-21T07:10:31.064Z,10.63
2018-03-21T07:12:58.582Z,12.37
2018-03-21T07:15:37.817Z,9.17
2018-03-21T07:18:05.397Z,16.03
2018-03-21T07:20:32.889Z,8.33
2018-03-21T07:23:00.410Z,11.67
2018-03-21T07:25:27.932Z,14.93
2018-03-21T07:27:55.466Z,15.53
2018-03-21T07:30:22.971Z,13.87
2018-03-21T07:32:50.493Z,11.57
2018-03-21T07:35:18.015Z,12.20
2018-03-21T07:37:45.535Z,7.80
2018-03-21T07:40:13.021Z,9.97
2018-03-21T07:42:40.553Z,10.10
2018-03-21T07:45:08.137Z,7.20
2018-03-21T07:47:35.638Z,7.50
2018-03-21T07:50:03.208Z,12.87
2018-03-21T07:52:30.729Z,10.00
2018-03-21T07:54:58.247Z,5.90
2018-03-21T07:57:25.752Z,8.43
2018-03-21T07:59:53.261Z,8.83
2018-03-21T08:02:20.791Z,7.37
2018-03-21T08:04:48.272Z,17.10
2018-03-21T08:07:15.770Z,6.90
2018-03-21T08:09:43.288Z,9.50
2018-03-21T08:12:10.793Z,13.47
2018-03-21T08:14:38.321Z,8.47
2018-03-21T08:17:05.859Z,6.13
2018-03-21T08:19:33.621Z,6.53
2018-03-21T08:22:01.160Z,8.77
2018-03-21T08:24:28.697Z,5.27
2018-03-21T08:26:57.010Z,7.67
2018-03-21T08:29:24.524Z,9.80
2018-03-21T08:31:52.034Z,9.67
2018-03-21T08:34:19.540Z,6.83
2018-03-21T08:36:47.100Z,6.50
2018-03-21T08:39:14.631Z,5.60
2018-03-21T08:41:42.139Z,5.50
2018-03-21T08:44:09.676Z,12.87
2018-03-21T08:46:37.183Z,6.43
2018-03-21T08:49:04.673Z,7.23
2018-03-21T08:51:32.157Z,8.17
2018-03-21T08:54:00.303Z,7.67
2018-03-21T08:56:27.823Z,10.73
2018-03-21T08:58:55.363Z,12.33
2018-03-21T09:01:22.920Z,9.13
2018-03-21T09:03:50.435Z,7.77
2018-03-21T09:06:17.924Z,11.83
2018-03-21T09:08:45.453Z,9.97
2018-03-21T09:11:12.963Z,10.40
2018-03-21T09:13:40.476Z,11.77
2018-03-21T09:16:07.987Z,9.07
2018-03-21T09:18:35.496Z,9.23
2018-03-21T09:21:03.036Z,8.00
2018-03-21T09:23:30.566Z,13.00
2018-03-21T09:25:58.072Z,11.40
2018-03-21T09:28:25.610Z,6.50
2018-03-21T09:30:53.139Z,13.90
2018-03-21T09:33:20.660Z,9.83
2018-03-21T09:35:48.290Z,5.93
2018-03-21T09:38:15.815Z,11.93
2018-03-21T09:40:43.323Z,10.47
2018-03-21T09:43:10.830Z,10.10
2018-03-21T09:45:38.340Z,8.70
2018-03-21T09:48:05.883Z,11.07
2018-03-21T09:50:33.421Z,10.83
2018-03-21T09:53:00.980Z,6.20
2018-03-21T09:55:28.487Z,8.40
2018-03-21T09:57:55.996Z,12.77
2018-03-21T10:00:23.519Z,9.43
2018-03-21T10:02:51.030Z,7.63
2018-03-21T10:05:18.570Z,11.50
2018-03-21T10:07:46.073Z,13.23
2018-03-21T10:10:13.565Z,9.50
2018-03-21T10:12:41.127Z,9.60
2018-03-21T10:15:08.640Z,12.60
2018-03-21T10:17:36.206Z,5.97
2018-03-21T10:20:03.769Z,11.43
2018-03-21T10:22:31.286Z,11.30
2018-03-21T10:24:58.831Z,7.47
2018-03-21T10:27:26.361Z,10.37
2018-03-21T10:29:53.865Z,11.77
2018-03-21T10:32:21.380Z,6.93
2018-03-21T10:34:48.895Z,10.60
2018-03-21T10:37:16.441Z,6.20
2018-03-21T10:39:44.045Z,11.57
2018-03-21T10:42:11.664Z,10.37
2018-03-21T10:44:39.187Z,12.73
2018-03-21T10:47:06.700Z,6.37
2018-03-21T10:49:34.197Z,10.57
2018-03-21T10:52:01.749Z,11.20
2018-03-21T10:54:29.242Z,7.77
2018-03-21T10:56:57.729Z,6.77
2018-03-21T10:59:25.269Z,10.27
2018-03-21T11:01:58.386Z,9.83
2018-03-21T11:04:25.928Z,11.57
2018-03-21T11:06:53.431Z,8.10
2018-03-21T11:09:20.956Z,11.23
2018-03-21T11:11:48.453Z,7.87
2018-03-21T11:14:15.952Z,7.67
2018-03-21T11:16:43.488Z,10.07
2018-03-21T11:19:11.037Z,6.50
2018-03-21T11:21:38.585Z,5.63
2018-03-21T11:24:06.197Z,11.77
2018-03-21T11:26:33.759Z,7.27
2018-03-21T11:29:01.307Z,11.57
2018-03-21T11:31:28.821Z,7.47
2018-03-21T11:33:56.348Z,8.27
2018-03-21T11:36:23.905Z,14.13
2018-03-21T11:38:51.443Z,6.57
2018-03-21T11:41:18.968Z,5.47
2018-03-21T11:43:46.478Z,7.10
2018-03-21T11:46:14.019Z,4.70
2018-03-21T11:48:41.519Z,5.20
2018-03-21T11:51:09.065Z,6.07
2018-03-21T11:53:36.639Z,5.87
2018-03-21T11:56:04.186Z,8.60
2018-03-21T11:58:31.677Z,6.87
2018-03-21T12:00:59.207Z,8.33
2018-03-21T12:03:26.748Z,9.30
2018-03-21T12:05:54.245Z,8.30
2018-03-21T12:08:21.773Z,5.77
2018-03-21T12:10:49.296Z,6.30
2018-03-21T12:13:16.955Z,4.83
2018-03-21T12:15:44.712Z,6.97
2018-03-21T12:18:13.889Z,3.23
2018-03-21T12:20:41.432Z,5.73
2018-03-21T12:23:08.984Z,3.83
2018-03-21T12:25:36.501Z,7.67
2018-03-21T12:28:04.056Z,5.07
2018-03-21T12:30:31.563Z,4.13
2018-03-21T12:32:59.081Z,3.40
2018-03-21T12:35:26.577Z,5.60
2018-03-21T12:37:54.124Z,5.33
2018-03-21T12:40:21.682Z,2.43
2018-03-21T12:42:49.184Z,1.93
2018-03-21T12:45:16.716Z,5.67
2018-03-21T12:47:45.091Z,6.57
2018-03-21T12:50:12.705Z,3.53
2018-03-21T12:52:40.163Z,7.20
2018-03-21T12:55:07.674Z,4.00
2018-03-21T12:57:35.238Z,3.73
2018-03-21T13:00:02.756Z,3.03
2018-03-21T13:02:30.381Z,4.40
2018-03-21T13:04:57.878Z,2.17
2018-03-21T13:07:25.374Z,6.63
2018-03-21T13:09:52.877Z,2.90
2018-03-21T13:12:20.388Z,3.50
2018-03-21T13:14:47.914Z,4.70
2018-03-21T13:17:15.673Z,3.67
2018-03-21T13:19:43.229Z,10.07
2018-03-21T13:22:10.764Z,5.30
2018-03-21T13:24:38.280Z,2.73
2018-03-21T13:27:05.813Z,7.30
2018-03-21T13:29:33.334Z,2.80
2018-03-21T13:32:00.838Z,8.37
2018-03-21T13:34:28.379Z,3.97
2018-03-21T13:36:55.886Z,6.00
2018-03-21T13:39:23.417Z,3.80
2018-03-21T13:41:50.931Z,3.80
2018-03-21T13:44:18.464Z,2.03
2018-03-21T13:46:45.988Z,2.00
2018-03-21T13:49:13.495Z,4.37
2018-03-21T13:51:40.996Z,4.50
2018-03-21T13:54:08.554Z,2.33
2018-03-21T13:56:36.038Z,1.97
2018-03-21T13:59:04.049Z,3.40
2018-03-21T14:01:31.593Z,1.93
2018-03-21T14:03:59.101Z,2.53
2018-03-21T14:06:26.656Z,3.87
2018-03-21T14:08:54.210Z,2.50
2018-03-21T14:11:21.710Z,1.80
2018-03-21T14:13:49.270Z,4.33
2018-03-21T14:16:16.830Z,3.70
2018-03-21T14:18:44.409Z,2.40
2018-03-21T14:21:11.925Z,6.63
2018-03-21T14:23:39.465Z,4.97
2018-03-21T14:26:06.994Z,3.10
2018-03-21T14:28:34.539Z,2.87
2018-03-21T14:31:02.245Z,5.03
2018-03-21T14:33:29.774Z,5.40
2018-03-21T14:35:57.309Z,3.10
2018-03-21T14:38:24.821Z,5.73
2018-03-21T14:40:52.402Z,8.73
2018-03-21T14:43:19.937Z,3.40
2018-03-21T14:45:47.436Z,4.90
2018-03-21T14:48:14.945Z,4.67
2018-03-21T14:50:42.480Z,6.83
2018-03-21T14:53:09.969Z,5.60
2018-03-21T14:55:37.565Z,5.03
2018-03-21T14:58:05.086Z,4.53
2018-03-21T15:00:32.599Z,9.93
2018-03-21T15:03:00.107Z,9.10
2018-03-21T15:05:27.617Z,5.00
2018-03-21T15:07:55.141Z,3.97
2018-03-21T15:10:22.657Z,8.23
2018-03-21T15:12:50.221Z,10.13
2018-03-21T15:15:17.742Z,6.70
2018-03-21T15:17:45.357Z,6.17
2018-03-21T15:20:12.915Z,5.60
2018-03-21T15:22:40.423Z,5.73
2018-03-21T15:25:07.963Z,6.17
2018-03-21T15:27:35.560Z,6.33
2018-03-21T15:30:03.101Z,9.17
2018-03-21T15:32:30.674Z,10.10
2018-03-21T15:34:58.182Z,4.93
2018-03-21T15:37:25.828Z,8.20
2018-03-21T15:39:53.290Z,7.33
2018-03-21T15:42:20.789Z,8.47
2018-03-21T15:44:48.313Z,6.70
2018-03-21T15:47:15.821Z,7.60
2018-03-21T15:49:43.343Z,8.27
2018-03-21T15:52:10.857Z,7.07
2018-03-21T15:54:38.386Z,14.13
2018-03-21T15:57:05.908Z,11.00
2018-03-21T15:59:33.415Z,10.87
2018-03-21T16:02:00.953Z,9.33
2018-03-21T16:04:28.648Z,10.00
2018-03-21T16:06:56.287Z,15.73
2018-03-21T16:09:23.836Z,9.03
2018-03-21T16:11:51.365Z,12.43
2018-03-21T16:14:18.848Z,9.90
2018-03-21T16:16:46.424Z,8.30
2018-03-21T16:19:13.959Z,12.50
2018-03-21T16:21:41.488Z,11.33
2018-03-21T16:24:09.242Z,11.97
2018-03-21T16:26:36.747Z,10.90
2018-03-21T16:29:04.242Z,12.40
2018-03-21T16:31:31.796Z,13.50
2018-03-21T16:33:59.303Z,14.53
2018-03-21T16:36:26.879Z,12.33
2018-03-21T16:38:54.419Z,12.57
2018-03-21T16:41:21.921Z,12.03
2018-03-21T16:43:49.444Z,14.80
2018-03-21T16:46:17.173Z,11.40
2018-03-21T16:48:45.051Z,11.23
2018-03-21T16:51:12.741Z,10.97
2018-03-21T16:53:40.359Z,17.87
2018-03-21T16:56:08.162Z,14.17
2018-03-21T16:58:35.993Z,16.17
2018-03-21T17:01:05.459Z,14.73
2018-03-21T17:03:34.788Z,20.30
2018-03-21T17:06:02.460Z,12.17
2018-03-21T17:08:30.310Z,15.83
2018-03-21T17:10:59.311Z,10.53
2018-03-21T17:13:27.972Z,17.97
2018-03-21T17:15:57.695Z,18.97
2018-03-21T17:18:25.235Z,10.53
2018-03-21T17:20:52.748Z,12.83
2018-03-21T17:23:21.918Z,12.30
2018-03-21T17:25:50.839Z,13.73
2018-03-21T17:28:18.901Z,16.07
2018-03-21T17:30:47.060Z,11.97
2018-03-21T17:33:14.675Z,11.80
2018-03-21T17:35:42.793Z,16.43
2018-03-21T17:38:10.759Z,16.27
2018-03-21T17:40:38.277Z,13.13
2018-03-21T17:43:06.896Z,11.00
2018-03-21T17:45:35.284Z,17.53
2018-03-21T17:48:02.861Z,13.33
2018-03-21T17:50:31.118Z,11.90
2018-03-21T17:52:58.639Z,19.50
2018-03-21T17:55:28.040Z,13.23
2018-03-21T17:57:55.762Z,10.60
2018-03-21T18:00:24.465Z,14.90
2018-03-21T18:02:52.373Z,10.97
2018-03-21T18:05:20.639Z,13.10
2018-03-21T18:07:48.413Z,9.60
2018-03-21T18:10:16.020Z,11.77
2018-03-21T18:12:43.884Z,15.30
2018-03-21T18:15:13.041Z,16.77
2018-03-21T18:17:41.190Z,15.67
2018-03-21T18:20:09.005Z,10.00
2018-03-21T18:22:36.665Z,12.37
2018-03-21T18:25:04.406Z,12.40
2018-03-21T18:27:32.120Z,12.87
2018-03-21T18:30:00.117Z,12.97
2018-03-21T18:32:27.794Z,15.57
2018-03-21T18:34:55.637Z,17.70
2018-03-21T18:37:23.212Z,11.83
2018-03-21T18:39:51.045Z,14.40
2018-03-21T18:42:18.702Z,10.90
2018-03-21T18:44:46.377Z,12.40
2018-03-21T18:47:14.008Z,13.40
2018-03-21T18:49:41.559Z,11.53
2018-03-21T18:52:09.127Z,9.93
2018-03-21T18:54:36.700Z,11.40
2018-03-21T18:57:04.269Z,14.67
2018-03-21T18:59:32.006Z,16.03
2018-03-21T19:01:59.769Z,14.77
2018-03-21T19:04:27.432Z,15.87
2018-03-21T19:06:55.056Z,21.23
2018-03-21T19:09:22.743Z,12.03
2018-03-21T19:11:50.982Z,14.50
2018-03-21T19:14:18.578Z,16.23
2018-03-21T19:16:46.137Z,15.53
2018-03-21T19:19:13.700Z,12.40
2018-03-21T19:21:42.513Z,11.93
2018-03-21T19:24:10.250Z,13.53
2018-03-21T19:26:37.809Z,13.23
2018-03-21T19:29:06.028Z,18.73
2018-03-21T19:31:33.617Z,15.47
2018-03-21T19:34:01.457Z,16.17
2018-03-21T19:36:29.022Z,12.73
2018-03-21T19:38:56.794Z,12.63
2018-03-21T19:41:24.366Z,13.50
2018-03-21T19:43:52.018Z,17.83
2018-03-21T19:46:19.626Z,20.83
2018-03-21T19:48:47.234Z,15.80
2018-03-21T19:51:14.949Z,19.90
2018-03-21T19:53:42.591Z,15.97
2018-03-21T19:56:16.156Z,18.20
2018-03-21T19:58:43.931Z,17.50
2018-03-21T20:01:11.493Z,18.63
2018-03-21T20:03:40.924Z,16.27
2018-03-21T20:06:08.651Z,22.30
2018-03-21T20:08:39.631Z,13.93
2018-03-21T20:11:08.000Z,16.53
2018-03-21T20:13:35.511Z,21.17
2018-03-21T20:16:03.048Z,18.90
2018-03-21T20:18:30.639Z,17.63
2018-03-21T20:20:58.188Z,18.80
2018-03-21T20:23:25.715Z,16.97
2018-03-21T20:25:53.457Z,19.30
2018-03-21T20:28:21.024Z,25.30
2018-03-21T20:30:48.672Z,21.83
2018-03-21T20:33:16.209Z,19.80
2018-03-21T20:35:43.831Z,15.70
2018-03-21T20:38:11.369Z,21.07
2018-03-21T20:40:38.907Z,19.27
2018-03-21T20:43:06.437Z,16.07
2018-03-21T20:45:33.935Z,23.87
2018-03-21T20:48:01.609Z,19.87
2018-03-21T20:50:29.476Z,24.90
2018-03-21T20:52:57.273Z,19.10
2018-03-21T20:55:24.982Z,23.13
2018-03-21T20:57:54.296Z,17.70
2018-03-21T21:00:22.031Z,18.17
2018-03-21T21:02:49.915Z,24.40
2018-03-21T21:05:17.597Z,20.97
2018-03-21T21:07:45.237Z,23.90
2018-03-21T21:10:12.855Z,16.77
2018-03-21T21:12:40.665Z,16.60
2018-03-21T21:15:08.327Z,21.97
2018-03-21T21:17:35.907Z,17.13
2018-03-21T21:20:03.703Z,15.23
2018-03-21T21:22:31.410Z,19.23
2018-03-21T21:24:59.154Z,18.83
2018-03-21T21:27:26.841Z,15.73
2018-03-21T21:29:54.423Z,17.33
2018-03-21T21:32:22.186Z,19.23
2018-03-21T21:34:49.784Z,18.30
2018-03-21T21:37:17.406Z,15.70
2018-03-21T21:39:49.524Z,16.97
2018-03-21T21:42:17.140Z,18.97
2018-03-21T21:44:44.796Z,19.67
2018-03-21T21:47:12.346Z,13.93
2018-03-21T21:49:39.924Z,16.33
2018-03-21T21:52:07.505Z,19.00
2018-03-21T21:54:35.121Z,19.03
2018-03-21T21:57:02.664Z,17.63
2018-03-21T21:59:30.272Z,18.03
2018-03-21T22:01:57.797Z,19.00
2018-03-21T22:04:25.326Z,14.87
2018-03-21T22:06:52.997Z,19.07
2018-03-21T22:09:20.500Z,13.33
2018-03-21T22:11:48.044Z,24.47
2018-03-21T22:14:16.622Z,24.40
2018-03-21T22:16:44.201Z,14.30
2018-03-21T22:19:11.763Z,18.30
2018-03-21T22:21:39.370Z,16.00
2018-03-21T22:24:06.876Z,21.80
2018-03-21T22:26:34.396Z,19.37
2018-03-21T22:29:01.958Z,17.00
2018-03-21T22:31:29.470Z,18.07
2018-03-21T22:33:57.024Z,21.90
2018-03-21T22:36:24.551Z,17.97
2018-03-21T22:38:52.193Z,17.27
2018-03-21T22:41:19.743Z,18.80
2018-03-21T22:43:47.309Z,18.70
2018-03-21T22:46:14.838Z,17.10
2018-03-21T22:48:42.335Z,21.33
2018-03-21T22:51:09.852Z,28.13
2018-03-21T22:53:37.373Z,18.67
2018-03-21T22:56:04.875Z,22.57
2018-03-21T22:58:32.399Z,22.70
2018-03-21T23:01:00.020Z,23.20
2018-03-21T23:03:27.660Z,19.27
2018-03-21T23:05:55.195Z,17.60
2018-03-21T23:08:23.558Z,23.53
2018-03-21T23:10:51.098Z,24.20
2018-03-21T23:13:18.646Z,22.00
2018-03-21T23:15:46.922Z,24.43
2018-03-21T23:18:15.296Z,28.53
2018-03-21T23:20:42.832Z,25.17
2018-03-21T23:23:10.385Z,22.60
2018-03-21T23:25:37.907Z,27.40
2018-03-21T23:28:05.530Z,29.17
2018-03-21T23:30:33.074Z,25.07
2018-03-21T23:33:00.605Z,25.00
2018-03-21T23:35:28.933Z,30.67
2018-03-21T23:37:56.475Z,31.40
2018-03-21T23:40:24.005Z,29.30
2018-03-21T23:42:51.518Z,33.37
2018-03-21T23:45:19.370Z,30.97
2018-03-21T23:47:46.923Z,33.47
2018-03-21T23:50:14.456Z,31.40
2018-03-21T23:52:41.963Z,34.87
2018-03-21T23:55:10.076Z,31.57
2018-03-21T23:57:37.613Z,32.17
